createdAt,value
2018-06-10T00:01:31.999Z,10.80
2018-06-10T00:03:58.018Z,11.10
2018-06-10T00:06:24.042Z,11.77
2018-06-10T00:08:50.051Z,11.13
2018-06-10T00:11:16.110Z,11.60
2018-06-10T00:13:42.126Z,10.87
2018-06-10T00:16:08.153Z,10.80
2018-06-10T00:18:34.162Z,10.80
2018-06-10T00:21:00.185Z,10.63
2018-06-10T00:23:26.201Z,11.00
2018-06-10T00:25:52.245Z,11.20
2018-06-10T00:28:18.254Z,11.27
2018-06-10T00:30:44.274Z,10.70
2018-06-10T00:33:10.287Z,11.27
2018-06-10T00:35:36.316Z,11.00
2018-06-10T00:38:02.339Z,12.70
2018-06-10T00:40:28.369Z,11.37
2018-06-10T00:42:54.384Z,10.60
2018-06-10T00:45:20.406Z,10.73
2018-06-10T00:47:46.418Z,11.00
2018-06-10T00:50:12.439Z,11.00
2018-06-10T00:52:38.449Z,10.53
2018-06-10T00:55:04.506Z,11.13
2018-06-10T00:57:30.534Z,10.63
2018-06-10T00:59:56.615Z,11.47
2018-06-10T01:02:22.633Z,11.40
2018-06-10T01:04:48.643Z,11.13
2018-06-10T01:07:14.662Z,10.63
2018-06-10T01:09:40.669Z,11.70
2018-06-10T01:12:06.700Z,12.57
2018-06-10T01:14:32.716Z,11.47
2018-06-10T01:16:58.734Z,10.80
2018-06-10T01:19:24.751Z,11.87
2018-06-10T01:21:50.777Z,11.33
2018-06-10T01:24:16.777Z,11.30
2018-06-10T01:26:42.800Z,12.00
2018-06-10T01:29:08.802Z,10.33
2018-06-10T01:31:34.817Z,10.40
2018-06-10T01:34:00.834Z,11.10
2018-06-10T01:36:26.878Z,11.10
2018-06-10T01:38:52.886Z,10.70
2018-06-10T01:41:18.902Z,10.73
2018-06-10T01:43:44.962Z,10.17
2018-06-10T01:46:11.025Z,11.17
2018-06-10T01:48:37.083Z,11.10
2018-06-10T01:51:03.158Z,10.77
2018-06-10T01:53:29.174Z,11.20
2018-06-10T01:55:55.226Z,10.30
2018-06-10T01:58:21.439Z,10.87
2018-06-10T02:00:47.563Z,10.33
2018-06-10T02:03:13.594Z,9.80
2018-06-10T02:05:39.718Z,11.13
2018-06-10T02:08:05.769Z,11.30
2018-06-10T02:10:31.810Z,9.77
2018-06-10T02:12:57.912Z,10.60
2018-06-10T02:15:24.099Z,10.80
2018-06-10T02:17:50.126Z,10.67
2018-06-10T02:20:16.130Z,11.13
2018-06-10T02:22:42.208Z,11.30
2018-06-10T02:25:08.252Z,10.70
2018-06-10T02:27:34.358Z,11.20
2018-06-10T02:30:00.679Z,10.77
2018-06-10T02:32:26.838Z,10.63
2018-06-10T02:34:52.890Z,10.57
2018-06-10T02:37:19.002Z,10.53
2018-06-10T02:39:45.054Z,10.77
2018-06-10T02:42:11.103Z,12.10
2018-06-10T02:44:37.167Z,10.80
2018-06-10T02:47:03.352Z,10.70
2018-06-10T02:49:29.411Z,10.37
2018-06-10T02:51:55.506Z,9.87
2018-06-10T02:54:21.606Z,11.00
2018-06-10T02:56:47.688Z,11.10
2018-06-10T02:59:13.759Z,10.07
2018-06-10T03:01:39.820Z,9.90
2018-06-10T03:04:05.899Z,9.40
2018-06-10T03:06:31.987Z,10.73
2018-06-10T03:08:58.024Z,11.07
2018-06-10T03:11:24.098Z,9.67
2018-06-10T03:13:50.133Z,10.97
2018-06-10T03:16:16.165Z,10.10
2018-06-10T03:18:42.235Z,10.37
2018-06-10T03:21:08.295Z,10.23
2018-06-10T03:23:34.368Z,10.70
2018-06-10T03:26:00.403Z,10.00
2018-06-10T03:28:26.444Z,9.93
2018-06-10T03:30:52.445Z,10.07
2018-06-10T03:33:18.482Z,10.40
2018-06-10T03:35:44.503Z,9.63
2018-06-10T03:38:10.546Z,9.80
2018-06-10T03:40:36.570Z,10.37
2018-06-10T03:43:02.626Z,10.17
2018-06-10T03:45:28.650Z,9.43
2018-06-10T03:47:54.685Z,9.30
2018-06-10T03:50:20.699Z,10.37
2018-06-10T03:52:46.721Z,9.50
2018-06-10T03:55:12.746Z,10.53
2018-06-10T03:57:38.780Z,10.80
2018-06-10T04:00:04.804Z,10.47
2018-06-10T04:02:30.836Z,10.87
2018-06-10T04:04:56.865Z,10.07
2018-06-10T04:07:22.886Z,10.50
2018-06-10T04:09:48.909Z,10.37
2018-06-10T04:12:14.934Z,10.33
2018-06-10T04:14:40.959Z,10.63
2018-06-10T04:17:07.014Z,9.90
2018-06-10T04:19:33.025Z,10.27
2018-06-10T04:21:59.044Z,10.30
2018-06-10T04:24:25.049Z,10.37
2018-06-10T04:26:51.089Z,9.73
2018-06-10T04:29:17.101Z,11.20
2018-06-10T04:31:43.123Z,10.83
2018-06-10T04:34:09.140Z,10.07
2018-06-10T04:36:35.164Z,8.93
2018-06-10T04:39:01.209Z,10.47
2018-06-10T04:41:27.219Z,9.90
2018-06-10T04:43:53.242Z,9.17
2018-06-10T04:46:19.256Z,9.67
2018-06-10T04:48:45.349Z,10.50
2018-06-10T04:51:11.369Z,9.83
2018-06-10T04:53:37.395Z,10.27
2018-06-10T04:56:03.405Z,10.90
2018-06-10T04:58:29.446Z,11.30
2018-06-10T05:00:55.464Z,10.67
2018-06-10T05:03:21.490Z,9.90
2018-06-10T05:05:47.511Z,10.40
2018-06-10T05:08:13.641Z,10.40
2018-06-10T05:10:39.650Z,10.07
2018-06-10T05:13:05.687Z,10.10
2018-06-10T05:15:31.718Z,10.60
2018-06-10T05:17:57.741Z,10.10
2018-06-10T05:20:23.758Z,9.97
2018-06-10T05:22:49.778Z,10.83
2018-06-10T05:25:15.787Z,10.10
2018-06-10T05:27:41.849Z,10.40
2018-06-10T05:30:07.877Z,10.40
2018-06-10T05:32:33.918Z,9.23
2018-06-10T05:34:59.929Z,9.17
2018-06-10T05:37:25.950Z,9.13
2018-06-10T05:39:51.967Z,10.43
2018-06-10T05:42:17.993Z,10.53
2018-06-10T05:44:44.020Z,10.13
2018-06-10T05:47:10.040Z,9.57
2018-06-10T05:49:36.065Z,10.00
2018-06-10T05:52:02.087Z,10.23
2018-06-10T05:54:28.127Z,9.57
2018-06-10T05:56:54.150Z,9.73
2018-06-10T05:59:20.278Z,9.63
2018-06-10T06:01:46.255Z,10.30
2018-06-10T06:04:12.286Z,9.70
2018-06-10T06:06:38.330Z,10.03
2018-06-10T06:09:04.366Z,9.87
2018-06-10T06:11:30.374Z,9.57
2018-06-10T06:13:56.403Z,10.73
2018-06-10T06:16:22.419Z,10.40
2018-06-10T06:18:48.454Z,10.07
2018-06-10T06:21:14.468Z,10.67
2018-06-10T06:23:40.503Z,10.20
2018-06-10T06:26:06.521Z,10.73
2018-06-10T06:28:32.554Z,10.27
2018-06-10T06:30:58.565Z,9.80
2018-06-10T06:33:24.600Z,10.73
2018-06-10T06:35:50.686Z,10.00
2018-06-10T06:38:16.708Z,9.20
2018-06-10T06:40:42.727Z,9.60
2018-06-10T06:43:08.754Z,11.33
2018-06-10T06:45:34.782Z,10.47
2018-06-10T06:48:00.802Z,9.40
2018-06-10T06:50:26.841Z,11.07
2018-06-10T06:52:52.876Z,10.23
2018-06-10T06:55:18.891Z,9.60
2018-06-10T06:57:44.928Z,10.17
2018-06-10T07:00:10.938Z,11.00
2018-06-10T07:02:36.971Z,10.97
2018-06-10T07:05:03.006Z,10.03
2018-06-10T07:07:29.018Z,10.97
2018-06-10T07:09:55.032Z,9.17
2018-06-10T07:12:21.056Z,10.30
2018-06-10T07:14:47.080Z,11.13
2018-06-10T07:17:13.099Z,10.90
2018-06-10T07:19:39.199Z,10.53
2018-06-10T07:22:05.220Z,11.63
2018-06-10T07:24:31.237Z,10.50
2018-06-10T07:26:57.253Z,12.07
2018-06-10T07:29:23.329Z,11.03
2018-06-10T07:31:49.342Z,10.60
2018-06-10T07:34:15.440Z,11.27
2018-06-10T07:36:41.466Z,11.17
2018-06-10T07:39:07.495Z,11.03
2018-06-10T07:41:33.624Z,10.20
2018-06-10T07:43:59.656Z,10.97
2018-06-10T07:46:25.753Z,10.63
2018-06-10T07:48:51.778Z,15.50
2018-06-10T07:51:17.778Z,18.70
2018-06-10T07:53:43.803Z,25.83
2018-06-10T07:56:09.814Z,24.73
2018-06-10T07:58:35.846Z,31.23
2018-06-10T08:01:01.863Z,27.70
2018-06-10T08:03:27.882Z,29.33
2018-06-10T08:05:53.903Z,28.17
2018-06-10T08:08:19.929Z,29.60
2018-06-10T08:10:45.942Z,34.20
2018-06-10T08:13:11.959Z,31.80
2018-06-10T08:15:37.980Z,31.30
2018-06-10T08:18:04.321Z,31.13
2018-06-10T08:20:30.374Z,33.33
2018-06-10T08:22:56.403Z,31.90
2018-06-10T08:25:22.435Z,31.17
2018-06-10T08:27:48.459Z,28.90
2018-06-10T08:30:14.510Z,32.87
2018-06-10T08:32:40.535Z,35.63
2018-06-10T08:35:06.663Z,34.00
2018-06-10T08:37:32.788Z,35.70
2018-06-10T08:39:58.827Z,36.47
2018-06-10T08:42:24.850Z,33.33
2018-06-10T08:44:50.962Z,34.60
2018-06-10T08:47:17.003Z,36.93
2018-06-10T08:49:43.062Z,33.80
2018-06-10T08:52:09.104Z,35.60
2018-06-10T08:54:35.135Z,33.83
2018-06-10T08:57:01.239Z,35.03
2018-06-10T08:59:27.214Z,35.67
2018-06-10T09:01:53.230Z,35.43
2018-06-10T09:04:19.333Z,37.17
2018-06-10T09:06:45.354Z,34.20
2018-06-10T09:09:11.391Z,35.83
2018-06-10T09:11:37.419Z,34.87
2018-06-10T09:14:03.586Z,36.40
2018-06-10T09:16:29.746Z,37.33
2018-06-10T09:18:55.799Z,37.27
2018-06-10T09:21:21.816Z,35.97
2018-06-10T09:23:47.923Z,39.07
2018-06-10T09:26:13.971Z,40.03
2018-06-10T09:28:40.001Z,34.77
2018-06-10T09:31:06.032Z,36.80
2018-06-10T09:33:32.139Z,34.30
2018-06-10T09:35:58.571Z,32.70
2018-06-10T09:38:25.252Z,31.63
2018-06-10T09:40:52.056Z,31.00
2018-06-10T09:43:18.147Z,32.83
2018-06-10T09:45:44.200Z,33.13
2018-06-10T09:48:10.216Z,30.23
2018-06-10T09:50:36.239Z,32.57
2018-06-10T09:53:02.263Z,32.40
2018-06-10T09:55:28.458Z,33.30
2018-06-10T09:57:54.525Z,31.80
2018-06-10T10:00:20.554Z,33.30
2018-06-10T10:02:46.582Z,31.70
2018-06-10T10:05:12.598Z,31.70
2018-06-10T10:07:38.650Z,30.20
2018-06-10T10:10:04.676Z,30.83
2018-06-10T10:12:30.685Z,28.00
2018-06-10T10:14:56.741Z,29.57
2018-06-10T10:17:22.781Z,27.43
2018-06-10T10:19:48.806Z,26.20
2018-06-10T10:22:15.172Z,27.50
2018-06-10T10:24:41.287Z,27.13
2018-06-10T10:27:07.308Z,26.10
2018-06-10T10:29:33.338Z,27.07
2018-06-10T10:31:59.460Z,26.63
2018-06-10T10:34:25.485Z,27.20
2018-06-10T10:36:51.506Z,24.50
2018-06-10T10:39:17.531Z,25.30
2018-06-10T10:41:43.570Z,26.10
2018-06-10T10:44:09.604Z,24.97
2018-06-10T10:46:35.703Z,24.60
2018-06-10T10:49:01.722Z,27.03
2018-06-10T10:51:27.765Z,27.70
2018-06-10T10:53:53.864Z,25.53
2018-06-10T10:56:19.979Z,25.17
2018-06-10T10:58:46.019Z,24.80
2018-06-10T11:01:12.061Z,25.20
2018-06-10T11:03:38.162Z,25.90
2018-06-10T11:06:04.185Z,26.00
2018-06-10T11:08:30.208Z,24.87
2018-06-10T11:10:56.239Z,26.80
2018-06-10T11:13:22.677Z,28.33
2018-06-10T11:15:48.750Z,25.73
2018-06-10T11:18:14.804Z,28.30
2018-06-10T11:20:40.819Z,27.43
2018-06-10T11:23:06.871Z,26.73
2018-06-10T11:25:32.903Z,25.00
2018-06-10T11:27:58.942Z,27.33
2018-06-10T11:30:24.975Z,25.73
2018-06-10T11:32:50.978Z,27.07
2018-06-10T11:35:16.997Z,25.10
2018-06-10T11:37:43.005Z,25.40
2018-06-10T11:40:09.032Z,24.70
2018-06-10T11:42:35.098Z,24.60
2018-06-10T11:45:01.288Z,23.70
2018-06-10T11:47:27.342Z,24.97
2018-06-10T11:49:53.365Z,24.77
2018-06-10T11:52:19.450Z,26.47
2018-06-10T11:54:45.499Z,24.40
2018-06-10T11:57:11.538Z,25.87
2018-06-10T11:59:37.553Z,23.87
2018-06-10T12:02:03.641Z,25.20
2018-06-10T12:04:29.644Z,24.20
2018-06-10T12:06:55.675Z,28.03
2018-06-10T12:09:21.689Z,30.00
2018-06-10T12:11:47.792Z,31.40
2018-06-10T12:14:13.813Z,32.00
2018-06-10T12:16:39.841Z,32.30
2018-06-10T12:19:05.863Z,31.23
2018-06-10T12:21:31.895Z,32.80
2018-06-10T12:23:57.910Z,31.93
2018-06-10T12:26:23.943Z,31.33
2018-06-10T12:28:49.970Z,30.20
2018-06-10T12:31:15.993Z,32.10
2018-06-10T12:33:42.001Z,29.53
2018-06-10T12:36:08.042Z,30.10
2018-06-10T12:38:34.066Z,28.73
2018-06-10T12:41:00.118Z,30.17
2018-06-10T12:43:26.123Z,30.57
2018-06-10T12:45:52.142Z,32.60
2018-06-10T12:48:18.162Z,30.60
2018-06-10T12:50:44.186Z,29.23
2018-06-10T12:53:10.250Z,27.80
2018-06-10T12:55:36.351Z,29.53
2018-06-10T12:58:02.375Z,29.00
2018-06-10T13:00:28.397Z,28.90
2018-06-10T13:02:54.550Z,29.10
2018-06-10T13:05:20.624Z,28.47
2018-06-10T13:07:46.698Z,28.87
2018-06-10T13:10:12.740Z,26.40
2018-06-10T13:12:38.892Z,28.53
2018-06-10T13:15:05.017Z,28.90
2018-06-10T13:17:31.042Z,28.13
2018-06-10T13:19:57.070Z,28.10
2018-06-10T13:22:23.955Z,27.80
2018-06-10T13:24:49.970Z,26.80
2018-06-10T13:27:15.988Z,27.07
2018-06-10T13:29:41.994Z,27.57
2018-06-10T13:32:08.007Z,26.17
2018-06-10T13:34:34.009Z,27.00
2018-06-10T13:37:00.038Z,26.30
2018-06-10T13:39:26.111Z,27.40
2018-06-10T13:41:52.368Z,26.53
2018-06-10T13:44:18.567Z,26.27
2018-06-10T13:46:44.693Z,26.53
2018-06-10T13:49:10.707Z,26.90
2018-06-10T13:51:36.741Z,24.90
2018-06-10T13:54:02.788Z,24.83
2018-06-10T13:56:28.805Z,24.60
2018-06-10T13:58:54.931Z,23.50
2018-06-10T14:01:20.979Z,24.47
2018-06-10T14:03:46.994Z,23.30
2018-06-10T14:06:13.031Z,25.00
2018-06-10T14:08:39.107Z,24.17
2018-06-10T14:11:05.126Z,25.77
2018-06-10T14:13:31.144Z,23.23
2018-06-10T14:15:57.187Z,23.63
2018-06-10T14:18:23.202Z,23.83
2018-06-10T14:20:49.238Z,23.80
2018-06-10T14:23:15.263Z,22.67
2018-06-10T14:25:41.266Z,22.40
2018-06-10T14:28:07.303Z,21.70
2018-06-10T14:30:33.327Z,22.87
2018-06-10T14:32:59.351Z,23.57
2018-06-10T14:35:25.370Z,23.93
2018-06-10T14:37:51.420Z,22.43
2018-06-10T14:40:17.462Z,24.27
2018-06-10T14:42:43.523Z,22.77
2018-06-10T14:45:09.547Z,21.73
2018-06-10T14:47:35.571Z,21.70
2018-06-10T14:50:01.578Z,22.60
2018-06-10T14:52:27.600Z,21.67
2018-06-10T14:54:53.627Z,20.23
2018-06-10T14:57:19.658Z,22.20
2018-06-10T14:59:45.686Z,20.03
2018-06-10T15:02:11.714Z,20.77
2018-06-10T15:04:37.765Z,22.40
2018-06-10T15:07:03.842Z,20.30
2018-06-10T15:09:29.856Z,20.80
2018-06-10T15:11:55.882Z,20.20
2018-06-10T15:14:21.912Z,20.27
2018-06-10T15:16:47.946Z,19.10
2018-06-10T15:19:14.000Z,20.60
2018-06-10T15:21:40.136Z,19.13
2018-06-10T15:24:06.190Z,20.57
2018-06-10T15:26:32.272Z,20.57
2018-06-10T15:28:58.307Z,20.30
2018-06-10T15:31:24.322Z,20.37
2018-06-10T15:33:50.347Z,19.63
2018-06-10T15:36:16.355Z,19.53
2018-06-10T15:38:42.380Z,21.17
2018-06-10T15:41:08.469Z,19.83
2018-06-10T15:43:34.550Z,19.30
2018-06-10T15:46:00.567Z,19.40
2018-06-10T15:48:26.688Z,19.23
2018-06-10T15:50:52.705Z,19.37
2018-06-10T15:53:19.672Z,20.23
2018-06-10T15:55:45.694Z,19.87
2018-06-10T15:58:11.725Z,18.97
2018-06-10T16:00:37.823Z,18.20
2018-06-10T16:03:03.867Z,18.20
2018-06-10T16:05:29.874Z,19.10
2018-06-10T16:07:55.898Z,18.50
2018-06-10T16:10:21.890Z,17.93
2018-06-10T16:12:48.054Z,17.43
2018-06-10T16:15:14.133Z,18.50
2018-06-10T16:17:40.161Z,18.40
2018-06-10T16:20:06.175Z,17.00
2018-06-10T16:22:32.207Z,18.20
2018-06-10T16:24:58.218Z,18.10
2018-06-10T16:27:24.234Z,18.83
2018-06-10T16:29:50.246Z,17.20
2018-06-10T16:32:16.276Z,17.57
2018-06-10T16:34:42.284Z,17.53
2018-06-10T16:37:08.371Z,16.97
2018-06-10T16:39:34.390Z,18.00
2018-06-10T16:42:00.510Z,17.40
2018-06-10T16:44:26.545Z,19.13
2018-06-10T16:46:52.598Z,19.00
2018-06-10T16:49:18.628Z,18.87
2018-06-10T16:51:44.643Z,17.20
2018-06-10T16:54:10.674Z,18.30
2018-06-10T16:56:36.693Z,19.07
2018-06-10T16:59:02.732Z,18.67
2018-06-10T17:01:28.785Z,19.30
2018-06-10T17:03:54.826Z,19.40
2018-06-10T17:06:20.851Z,20.40
2018-06-10T17:08:46.873Z,17.47
2018-06-10T17:11:12.878Z,17.67
2018-06-10T17:13:38.901Z,16.97
2018-06-10T17:16:05.062Z,17.27
2018-06-10T17:18:31.149Z,17.13
2018-06-10T17:20:57.162Z,18.17
2018-06-10T17:23:23.182Z,16.63
2018-06-10T17:25:49.223Z,18.47
2018-06-10T17:28:15.249Z,18.97
2018-06-10T17:30:41.471Z,18.80
2018-06-10T17:33:07.550Z,19.67
2018-06-10T17:35:33.579Z,19.00
2018-06-10T17:37:59.799Z,20.00
2018-06-10T17:40:25.911Z,18.83
2018-06-10T17:42:51.943Z,20.80
2018-06-10T17:45:17.991Z,19.87
2018-06-10T17:47:44.278Z,18.73
2018-06-10T17:50:10.456Z,18.90
2018-06-10T17:52:36.499Z,18.47
2018-06-10T17:55:02.567Z,19.33
2018-06-10T17:57:28.724Z,18.53
2018-06-10T17:59:54.738Z,18.63
2018-06-10T18:02:20.808Z,18.23
2018-06-10T18:04:46.838Z,18.37
2018-06-10T18:07:12.865Z,18.87
2018-06-10T18:09:38.897Z,19.80
2018-06-10T18:12:04.906Z,20.63
2018-06-10T18:14:30.958Z,19.20
2018-06-10T18:16:56.976Z,16.60
2018-06-10T18:19:22.993Z,16.27
2018-06-10T18:21:49.004Z,14.53
2018-06-10T18:24:15.055Z,14.77
2018-06-10T18:26:41.056Z,14.87
2018-06-10T18:29:07.119Z,14.30
2018-06-10T18:31:33.222Z,13.77
2018-06-10T18:33:59.241Z,13.60
2018-06-10T18:36:25.248Z,14.00
2018-06-10T18:38:51.288Z,13.03
2018-06-10T18:41:17.331Z,13.30
2018-06-10T18:43:43.579Z,12.83
2018-06-10T18:46:09.599Z,12.10
2018-06-10T18:48:35.622Z,11.57
2018-06-10T18:51:01.778Z,12.07
2018-06-10T18:53:27.859Z,12.20
2018-06-10T18:55:53.884Z,11.93
2018-06-10T18:58:19.951Z,11.63
2018-06-10T19:00:47.154Z,12.83
2018-06-10T19:03:13.259Z,12.40
2018-06-10T19:05:39.265Z,12.30
2018-06-10T19:08:05.311Z,13.90
2018-06-10T19:10:31.479Z,14.03
2018-06-10T19:12:57.511Z,13.23
2018-06-10T19:15:24.427Z,13.67
2018-06-10T19:17:50.554Z,13.03
2018-06-10T19:20:16.608Z,13.50
2018-06-10T19:22:42.903Z,13.83
2018-06-10T19:25:09.565Z,13.77
2018-06-10T19:27:35.724Z,14.67
2018-06-10T19:30:01.744Z,14.00
2018-06-10T19:32:27.795Z,13.07
2018-06-10T19:34:53.819Z,13.77
2018-06-10T19:37:19.879Z,12.13
2018-06-10T19:39:45.982Z,13.13
2018-06-10T19:42:12.047Z,13.27
2018-06-10T19:44:38.647Z,12.90
2018-06-10T19:47:04.844Z,13.13
2018-06-10T19:49:30.931Z,12.90
2018-06-10T19:51:57.580Z,13.60
2018-06-10T19:54:23.969Z,14.70
2018-06-10T19:56:50.078Z,15.77
2018-06-10T19:59:16.386Z,15.43
2018-06-10T20:01:42.437Z,15.53
2018-06-10T20:04:08.502Z,14.27
2018-06-10T20:06:34.594Z,14.53
2018-06-10T20:09:00.672Z,15.13
2018-06-10T20:11:26.777Z,13.43
2018-06-10T20:13:53.097Z,13.77
2018-06-10T20:16:19.185Z,13.70
2018-06-10T20:18:45.207Z,11.60
2018-06-10T20:21:11.237Z,12.43
2018-06-10T20:23:37.233Z,11.70
2018-06-10T20:26:03.251Z,11.73
2018-06-10T20:28:29.273Z,11.20
2018-06-10T20:30:55.339Z,12.17
2018-06-10T20:33:21.370Z,10.70
2018-06-10T20:35:47.401Z,10.50
2018-06-10T20:38:13.465Z,10.70
2018-06-10T20:40:40.053Z,12.00
2018-06-10T20:43:06.178Z,11.57
2018-06-10T20:45:32.202Z,12.53
2018-06-10T20:47:58.218Z,11.53
2018-06-10T20:50:24.247Z,12.20
2018-06-10T20:52:50.256Z,11.70
2018-06-10T20:55:16.279Z,12.37
2018-06-10T20:57:42.304Z,11.50
2018-06-10T21:00:08.500Z,12.17
2018-06-10T21:02:34.643Z,11.63
2018-06-10T21:05:00.822Z,11.60
2018-06-10T21:07:27.049Z,11.00
2018-06-10T21:09:53.204Z,10.90
2018-06-10T21:12:19.693Z,11.60
2018-06-10T21:14:46.147Z,10.00
2018-06-10T21:17:12.175Z,9.73
2018-06-10T21:19:38.430Z,10.90
2018-06-10T21:22:05.010Z,11.63
2018-06-10T21:24:31.066Z,10.23
2018-06-10T21:26:57.264Z,11.07
2018-06-10T21:29:23.697Z,11.43
2018-06-10T21:31:49.746Z,10.57
2018-06-10T21:34:15.765Z,10.87
2018-06-10T21:36:41.787Z,10.33
2018-06-10T21:39:07.811Z,10.43
2018-06-10T21:41:33.896Z,9.83
2018-06-10T21:43:59.931Z,9.50
2018-06-10T21:46:25.983Z,10.33
2018-06-10T21:48:52.006Z,10.40
2018-06-10T21:51:18.029Z,9.37
2018-06-10T21:53:44.053Z,9.20
2018-06-10T21:56:10.057Z,10.20
2018-06-10T21:58:36.082Z,9.60
2018-06-10T22:01:02.099Z,9.20
2018-06-10T22:03:28.205Z,9.30
2018-06-10T22:05:54.228Z,9.87
2018-06-10T22:08:20.263Z,8.97
2018-06-10T22:10:46.263Z,9.77
2018-06-10T22:13:12.283Z,9.57
2018-06-10T22:15:38.316Z,8.50
2018-06-10T22:18:04.359Z,9.07
2018-06-10T22:20:30.375Z,9.53
2018-06-10T22:22:56.402Z,9.30
2018-06-10T22:25:22.398Z,9.83
2018-06-10T22:27:48.422Z,9.57
2018-06-10T22:30:14.446Z,9.57
2018-06-10T22:32:40.468Z,9.90
2018-06-10T22:35:06.486Z,8.97
2018-06-10T22:37:32.502Z,9.43
2018-06-10T22:39:58.514Z,9.07
2018-06-10T22:42:24.531Z,8.80
2018-06-10T22:44:50.537Z,8.80
2018-06-10T22:47:16.560Z,8.93
2018-06-10T22:49:42.571Z,8.87
2018-06-10T22:52:08.596Z,9.20
2018-06-10T22:54:34.611Z,8.77
2018-06-10T22:57:00.619Z,9.70
2018-06-10T22:59:26.644Z,9.70
2018-06-10T23:01:52.666Z,8.90
2018-06-10T23:04:18.719Z,7.87
2018-06-10T23:06:44.746Z,8.40
2018-06-10T23:09:10.774Z,9.07
2018-06-10T23:11:36.787Z,9.57
2018-06-10T23:14:02.814Z,8.33
2018-06-10T23:16:28.848Z,8.70
2018-06-10T23:18:54.879Z,9.20
2018-06-10T23:21:20.908Z,8.50
2018-06-10T23:23:46.942Z,8.67
2018-06-10T23:26:12.994Z,8.20
2018-06-10T23:28:39.121Z,8.17
2018-06-10T23:31:05.181Z,7.37
2018-06-10T23:33:31.219Z,9.13
2018-06-10T23:35:57.334Z,7.90
2018-06-10T23:38:23.967Z,8.37
2018-06-10T23:40:49.993Z,9.07
2018-06-10T23:43:16.039Z,8.97
2018-06-10T23:45:42.102Z,8.47
2018-06-10T23:48:08.535Z,9.13
2018-06-10T23:50:34.595Z,9.37
2018-06-10T23:53:00.618Z,8.37
2018-06-10T23:55:26.747Z,9.53
2018-06-10T23:57:52.795Z,8.50
